New Kensington, PA (15068)

8:31 PM EDT on July 24, 2016 (GMT -0400)
40 Acres | | Change Station

Elev 1003 ft 40.58 °N, 79.74 °W | Updated 6 seconds ago

Scattered Clouds
Scattered Clouds
73.5 °F
Feels Like 73.5 °F
N
0.0
Wind Variable Wind from North
Gusts 0.0 mph

Today
High -- | Low -- °F
--% Chance of Precip.
Yesterday
High -- | Low -- °F
Precip. -- in
Pressure 30.02 in
Visibility 7.0 miles
Clouds Scattered Clouds 12000 ft
Dew Point 72 °F
Humidity 96%
Rainfall 0.32 in
Snow Depth Not available.
6:09 AM 8:41 PM
Waning Gibbous, 71% visible
METAR KAGC 242353Z 00000KT 7SM SCT120 24/22 A3003 RMK AO2 SLP164 60049 T02390217 10328 20217 55002 $
Pressure 30.02 in
Visibility 7.0 miles
Clouds Scattered Clouds 12000 ft
Dew Point 72 °F
Humidity 96%
Rainfall 0.32 in
Snow Depth Not available.
6:09 AM 8:41 PM
Waning Gibbous, 71% visible
METAR KAGC 242353Z 00000KT 7SM SCT120 24/22 A3003 RMK AO2 SLP164 60049 T02390217 10328 20217 55002 $

10-Day Weather Forecast

Almanac

Astronomy

Jul. 24, 2016 Rise Set
Actual Time
Civil Twilight
Nautical Twilight
Astronomical Twilight
Moon
Length of Visible Light
Length of Day
Tomorrow will be .
, % of the Moon is Illuminated

Today's Extremes

State Highs State Lows

Community

WunderPhotos

Upload Photos

1,927,214 photos uploaded!

WunderBlog® & News

Nearby

Air Quality

  Air Quality AQ Index Pollutant
Not available.

Snow Depth

Station Depth Elevation

Earthquake Activity

City Distance Mag. Time & Date
Minimum magnitude displayed is 2.5.

Coastal Water Temperatures

Place Temperature

Stations

Nearby Weather Stations

Station Location Temp. Windchill Dew Point Humidity Wind Precip. Elev Updated Type
                   

Watches & Warnings

There are currently no watches in effect.